createdAt,value
2019-01-23T00:00:50.481Z,45.47
2019-01-23T00:03:19.859Z,41.23
2019-01-23T00:05:49.683Z,49.23
2019-01-23T00:08:19.236Z,41.40
2019-01-23T00:10:48.128Z,40.73
2019-01-23T00:13:17.522Z,47.37
2019-01-23T00:15:46.901Z,53.07
2019-01-23T00:18:15.796Z,48.83
2019-01-23T00:20:45.321Z,50.07
2019-01-23T00:23:14.499Z,43.93
2019-01-23T00:25:44.255Z,40.03
2019-01-23T00:28:13.452Z,51.37
2019-01-23T00:30:42.671Z,42.63
2019-01-23T00:33:11.670Z,45.23
2019-01-23T00:35:41.043Z,44.90
2019-01-23T00:38:09.956Z,43.97
2019-01-23T00:40:39.536Z,42.73
2019-01-23T00:43:08.386Z,43.07
2019-01-23T00:45:37.804Z,45.13
2019-01-23T00:48:06.999Z,38.43
2019-01-23T00:50:36.527Z,42.33
2019-01-23T00:53:05.792Z,36.50
2019-01-23T00:55:35.007Z,40.10
2019-01-23T00:58:04.390Z,39.70
2019-01-23T01:00:33.775Z,45.07
2019-01-23T01:03:03.179Z,40.83
2019-01-23T01:05:32.453Z,35.03
2019-01-23T01:08:01.971Z,44.97
2019-01-23T01:10:31.065Z,38.03
2019-01-23T01:13:00.595Z,43.07
2019-01-23T01:15:30.109Z,42.57
2019-01-23T01:17:59.967Z,47.07
2019-01-23T01:20:28.935Z,42.87
2019-01-23T01:22:58.790Z,41.80
2019-01-23T01:25:28.047Z,41.70
2019-01-23T01:27:57.580Z,43.17
2019-01-23T01:30:27.035Z,51.57
2019-01-23T01:32:56.550Z,41.13
2019-01-23T01:35:26.286Z,42.97
2019-01-23T01:37:55.623Z,37.10
2019-01-23T01:40:24.756Z,41.97
2019-01-23T01:42:54.008Z,35.83
2019-01-23T01:45:23.369Z,42.40
2019-01-23T01:47:53.158Z,41.50
2019-01-23T01:50:22.285Z,35.77
2019-01-23T01:52:51.041Z,42.13
2019-01-23T01:55:20.233Z,41.77
2019-01-23T01:57:50.839Z,43.83
2019-01-23T02:00:21.391Z,38.60
2019-01-23T02:02:50.354Z,43.43
2019-01-23T02:05:19.359Z,48.30
2019-01-23T02:07:48.278Z,41.93
2019-01-23T02:10:19.272Z,37.43
2019-01-23T02:12:49.180Z,42.57
2019-01-23T02:15:18.727Z,39.03
2019-01-23T02:17:48.395Z,43.17
2019-01-23T02:20:20.039Z,42.67
2019-01-23T02:22:48.957Z,43.77
2019-01-23T02:25:18.336Z,40.70
2019-01-23T02:27:47.899Z,41.33
2019-01-23T02:30:18.720Z,42.23
2019-01-23T02:32:47.856Z,42.60
2019-01-23T02:35:17.789Z,43.40
2019-01-23T02:37:47.080Z,39.10
2019-01-23T02:40:23.524Z,42.37
2019-01-23T02:42:52.438Z,42.83
2019-01-23T02:45:22.084Z,43.33
2019-01-23T02:47:51.289Z,40.33
2019-01-23T02:50:20.212Z,43.90
2019-01-23T02:52:49.312Z,41.00
2019-01-23T02:55:18.097Z,44.53
2019-01-23T02:57:47.202Z,40.47
2019-01-23T03:00:17.791Z,42.00
2019-01-23T03:02:47.195Z,43.77
2019-01-23T03:05:17.550Z,45.10
2019-01-23T03:07:47.135Z,45.17
2019-01-23T03:10:17.872Z,39.77
2019-01-23T03:12:46.707Z,44.67
2019-01-23T03:15:16.556Z,37.93
2019-01-23T03:17:46.122Z,42.53
2019-01-23T03:20:16.684Z,38.07
2019-01-23T03:22:46.211Z,38.40
2019-01-23T03:25:15.681Z,35.03
2019-01-23T03:27:44.655Z,36.93
2019-01-23T03:30:16.356Z,39.13
2019-01-23T03:32:45.295Z,39.17
2019-01-23T03:35:14.332Z,35.03
2019-01-23T03:37:43.146Z,43.20
2019-01-23T03:40:14.401Z,36.90
2019-01-23T03:42:43.348Z,38.97
2019-01-23T03:45:13.428Z,38.93
2019-01-23T03:47:42.714Z,35.43
2019-01-23T03:50:13.975Z,36.80
2019-01-23T03:52:43.212Z,39.60
2019-01-23T03:55:12.422Z,37.50
2019-01-23T03:57:41.313Z,35.93
2019-01-23T04:00:15.407Z,36.57
2019-01-23T04:02:44.649Z,36.47
2019-01-23T04:05:13.698Z,36.03
2019-01-23T04:07:42.762Z,40.60
2019-01-23T04:10:13.557Z,33.87
2019-01-23T04:12:42.488Z,35.90
2019-01-23T04:15:12.450Z,35.90
2019-01-23T04:17:41.375Z,37.80
2019-01-23T04:20:13.102Z,36.10
2019-01-23T04:22:42.007Z,40.90
2019-01-23T04:25:11.844Z,39.80
2019-01-23T04:27:41.040Z,29.67
2019-01-23T04:30:15.440Z,32.17
2019-01-23T04:32:44.661Z,30.73
2019-01-23T04:35:13.562Z,35.63
2019-01-23T04:37:42.869Z,30.30
2019-01-23T04:40:12.351Z,33.63
2019-01-23T04:42:41.827Z,34.43
2019-01-23T04:45:12.543Z,32.37
2019-01-23T04:47:41.436Z,32.80
2019-01-23T04:50:11.800Z,30.37
2019-01-23T04:53:02.768Z,31.73
2019-01-23T04:55:32.428Z,37.07
2019-01-23T04:58:01.513Z,33.10
2019-01-23T05:00:31.053Z,30.40
2019-01-23T05:03:00.345Z,28.87
2019-01-23T05:05:29.230Z,32.13
2019-01-23T05:07:58.052Z,33.40
2019-01-23T05:10:26.856Z,31.17
2019-01-23T05:12:56.386Z,29.57
2019-01-23T05:15:25.202Z,34.50
2019-01-23T05:17:54.113Z,31.40
2019-01-23T05:20:22.928Z,34.57
2019-01-23T05:22:51.677Z,30.93
2019-01-23T05:25:20.452Z,28.30
2019-01-23T05:27:49.619Z,32.47
2019-01-23T05:30:23.831Z,30.73
2019-01-23T05:32:52.741Z,34.87
2019-01-23T05:35:21.679Z,35.90
2019-01-23T05:37:50.910Z,31.47
2019-01-23T05:40:19.760Z,37.60
2019-01-23T05:42:49.123Z,34.83
2019-01-23T05:45:18.298Z,33.67
2019-01-23T05:47:47.046Z,33.43
2019-01-23T05:50:16.716Z,31.67
2019-01-23T05:52:47.668Z,30.17
2019-01-23T05:55:16.483Z,32.33
2019-01-23T05:57:45.719Z,35.33
2019-01-23T06:00:19.611Z,31.60
2019-01-23T06:02:49.128Z,28.03
2019-01-23T06:05:19.343Z,32.83
2019-01-23T06:07:48.239Z,35.00
2019-01-23T06:10:17.180Z,35.00
2019-01-23T06:12:46.087Z,34.90
2019-01-23T06:15:15.156Z,30.97
2019-01-23T06:17:44.414Z,32.07
2019-01-23T06:20:15.495Z,29.40
2019-01-23T06:22:44.900Z,29.70
2019-01-23T06:25:13.822Z,30.27
2019-01-23T06:27:42.748Z,33.97
2019-01-23T06:30:14.392Z,27.37
2019-01-23T06:32:43.254Z,28.03
2019-01-23T06:35:12.476Z,28.93
2019-01-23T06:37:41.675Z,30.13
2019-01-23T06:40:11.629Z,30.23
2019-01-23T06:42:40.366Z,28.27
2019-01-23T06:45:11.563Z,34.03
2019-01-23T06:47:40.472Z,30.87
2019-01-23T06:50:12.664Z,30.43
2019-01-23T06:52:41.520Z,32.67
2019-01-23T06:55:10.434Z,31.00
2019-01-23T06:57:39.643Z,36.17
2019-01-23T07:00:17.122Z,34.77
2019-01-23T07:02:42.824Z,34.00
2019-01-23T07:05:12.217Z,29.10
2019-01-23T07:07:41.048Z,32.83
2019-01-23T07:10:12.397Z,32.83
2019-01-23T07:12:41.194Z,35.87
2019-01-23T07:15:10.792Z,30.57
2019-01-23T07:17:40.081Z,32.73
2019-01-23T07:20:12.396Z,39.90
2019-01-23T07:22:41.143Z,35.00
2019-01-23T07:25:10.532Z,37.40
2019-01-23T07:27:39.298Z,32.53
2019-01-23T07:30:12.990Z,32.87
2019-01-23T07:32:41.787Z,32.13
2019-01-23T07:35:11.042Z,43.90
2019-01-23T07:37:39.827Z,34.77
2019-01-23T07:40:08.848Z,40.47
2019-01-23T07:42:37.916Z,39.20
2019-01-23T07:45:07.753Z,41.23
2019-01-23T07:47:36.599Z,39.10
2019-01-23T07:50:06.568Z,40.77
2019-01-23T07:52:35.457Z,41.23
2019-01-23T07:55:06.096Z,42.30
2019-01-23T07:57:34.944Z,39.90
2019-01-23T08:00:05.585Z,42.30
2019-01-23T08:02:34.330Z,42.53
2019-01-23T08:05:03.237Z,41.83
2019-01-23T08:07:32.053Z,44.20
2019-01-23T08:10:00.828Z,42.70
2019-01-23T08:12:29.615Z,44.57
2019-01-23T08:14:58.404Z,44.33
2019-01-23T08:17:32.684Z,44.77
2019-01-23T08:19:58.024Z,42.10
2019-01-23T08:22:27.255Z,39.87
2019-01-23T08:24:55.996Z,41.17
2019-01-23T08:27:24.783Z,41.97
2019-01-23T08:29:53.589Z,44.83
2019-01-23T08:32:22.449Z,42.10
2019-01-23T08:34:51.644Z,43.50
2019-01-23T08:37:22.185Z,41.13
2019-01-23T08:39:50.967Z,46.07
2019-01-23T08:42:19.849Z,46.13
2019-01-23T08:44:48.656Z,46.63
2019-01-23T08:47:17.557Z,43.80
2019-01-23T08:49:46.342Z,44.60
2019-01-23T08:52:15.513Z,47.37
2019-01-23T08:54:44.258Z,47.53
2019-01-23T08:57:13.448Z,47.27
2019-01-23T08:59:42.214Z,42.23
2019-01-23T09:02:11.004Z,41.67
2019-01-23T09:04:39.803Z,38.73
2019-01-23T09:07:08.746Z,42.00
2019-01-23T09:09:37.842Z,42.70
2019-01-23T09:12:06.575Z,46.00
2019-01-23T09:14:35.729Z,45.93
2019-01-23T09:17:04.642Z,49.67
2019-01-23T09:19:33.501Z,48.03
2019-01-23T09:22:02.363Z,45.03
2019-01-23T09:24:31.159Z,47.13
2019-01-23T09:27:00.373Z,55.73
2019-01-23T09:29:29.508Z,48.37
2019-01-23T09:32:26.892Z,40.57
2019-01-23T09:35:16.533Z,39.30
2019-01-23T09:37:59.688Z,36.53
2019-01-23T09:40:40.989Z,39.67
2019-01-23T09:43:53.727Z,38.00
2019-01-23T09:46:53.487Z,43.87
2019-01-23T09:50:07.023Z,38.50
2019-01-23T09:53:20.513Z,34.60
2019-01-23T09:55:49.321Z,35.97
2019-01-23T09:58:18.202Z,43.93
2019-01-23T10:00:47.550Z,39.07
2019-01-23T10:03:22.816Z,40.73
2019-01-23T10:05:47.664Z,36.47
2019-01-23T10:08:16.603Z,45.90
2019-01-23T10:10:45.385Z,42.57
2019-01-23T10:13:14.267Z,41.47
2019-01-23T10:15:55.981Z,47.53
2019-01-23T10:18:24.744Z,38.13
2019-01-23T10:20:53.533Z,40.13
2019-01-23T10:23:22.338Z,37.97
2019-01-23T10:25:51.448Z,41.40
2019-01-23T10:28:20.276Z,44.23
2019-01-23T10:30:49.067Z,44.33
2019-01-23T10:33:18.015Z,41.53
2019-01-23T10:35:47.301Z,40.27
2019-01-23T10:38:16.093Z,44.53
2019-01-23T10:40:44.847Z,46.50
2019-01-23T10:43:13.709Z,50.13
2019-01-23T10:45:42.856Z,50.33
2019-01-23T10:48:11.672Z,48.23
2019-01-23T10:50:40.461Z,48.57
2019-01-23T10:53:10.146Z,43.93
2019-01-23T10:55:39.004Z,46.03
2019-01-23T10:58:08.232Z,44.17
2019-01-23T11:00:37.673Z,53.00
2019-01-23T11:03:10.147Z,46.17
2019-01-23T11:05:37.997Z,46.87
2019-01-23T11:08:07.273Z,50.97
2019-01-23T11:10:36.478Z,51.60
2019-01-23T11:13:05.432Z,50.90
2019-01-23T11:15:34.361Z,48.70
2019-01-23T11:18:03.262Z,48.07
2019-01-23T11:20:32.050Z,50.10
2019-01-23T11:23:00.840Z,48.13
2019-01-23T11:25:29.768Z,42.67
2019-01-23T11:27:59.169Z,46.00
2019-01-23T11:30:28.052Z,43.60
2019-01-23T11:32:57.678Z,53.97
2019-01-23T11:35:26.664Z,43.93
2019-01-23T11:37:55.512Z,53.07
2019-01-23T11:40:27.039Z,47.37
2019-01-23T11:42:56.584Z,52.90
2019-01-23T11:45:25.700Z,55.30
2019-01-23T11:47:55.125Z,53.70
2019-01-23T11:50:24.625Z,48.60
2019-01-23T11:52:53.970Z,54.03
2019-01-23T11:55:22.781Z,48.60
2019-01-23T11:57:51.708Z,47.00
2019-01-23T12:00:22.056Z,47.97
2019-01-23T12:02:50.875Z,47.60
2019-01-23T12:05:21.110Z,43.03
2019-01-23T12:07:50.442Z,43.57
2019-01-23T12:10:20.983Z,50.90
2019-01-23T12:12:49.865Z,51.87
2019-01-23T12:15:20.559Z,50.80
2019-01-23T12:17:49.592Z,46.03
2019-01-23T12:20:18.803Z,42.23
2019-01-23T12:22:47.703Z,41.60
2019-01-23T12:25:17.016Z,44.07
2019-01-23T12:27:46.000Z,38.80
2019-01-23T12:30:21.783Z,39.40
2019-01-23T12:32:51.027Z,39.33
2019-01-23T12:35:20.348Z,42.50
2019-01-23T12:37:49.626Z,39.87
2019-01-23T12:40:19.132Z,40.93
2019-01-23T12:42:48.647Z,39.30
2019-01-23T12:45:19.968Z,40.03
2019-01-23T12:47:49.186Z,39.53
2019-01-23T12:50:20.660Z,42.03
2019-01-23T12:52:49.492Z,38.13
2019-01-23T12:55:18.463Z,36.30
2019-01-23T12:57:48.325Z,38.70
2019-01-23T13:00:23.164Z,34.47
2019-01-23T13:02:52.755Z,47.30
2019-01-23T13:05:21.657Z,39.70
2019-01-23T13:07:51.236Z,40.30
2019-01-23T13:10:20.709Z,47.33
2019-01-23T13:12:50.118Z,40.90
2019-01-23T13:15:21.146Z,43.07
2019-01-23T13:17:50.936Z,43.17
2019-01-23T13:20:20.708Z,45.77
2019-01-23T13:22:49.814Z,42.63
2019-01-23T13:25:21.472Z,41.37
2019-01-23T13:27:50.556Z,37.53
2019-01-23T13:30:21.339Z,44.50
2019-01-23T13:32:50.257Z,40.60
2019-01-23T13:35:21.771Z,45.50
2019-01-23T13:37:50.958Z,40.70
2019-01-23T13:40:25.308Z,53.17
2019-01-23T13:42:54.156Z,57.57
2019-01-23T13:45:22.977Z,53.70
2019-01-23T13:47:52.227Z,50.47
2019-01-23T13:50:21.064Z,52.20
2019-01-23T13:52:50.215Z,51.47
2019-01-23T13:55:20.200Z,52.50
2019-01-23T13:57:49.103Z,49.77
2019-01-23T14:00:21.028Z,49.03
2019-01-23T14:02:50.276Z,46.27
2019-01-23T14:05:19.163Z,46.90
2019-01-23T14:07:48.072Z,47.77
2019-01-23T14:10:16.972Z,49.67
2019-01-23T14:12:45.912Z,48.27
2019-01-23T14:15:24.636Z,43.53
2019-01-23T14:17:53.393Z,47.53
2019-01-23T14:20:22.757Z,46.37
2019-01-23T14:22:51.944Z,46.37
2019-01-23T14:25:20.825Z,41.70
2019-01-23T14:27:50.104Z,39.67
2019-01-23T14:30:36.896Z,43.17
2019-01-23T14:33:05.742Z,41.57
2019-01-23T14:35:36.279Z,42.73
2019-01-23T14:38:05.759Z,41.90
2019-01-23T14:40:34.749Z,41.93
2019-01-23T14:43:03.721Z,38.47
2019-01-23T14:45:32.459Z,36.20
2019-01-23T14:48:01.626Z,47.00
2019-01-23T14:50:30.482Z,47.13
2019-01-23T14:52:59.320Z,45.20
2019-01-23T14:55:28.110Z,38.43
2019-01-23T14:57:57.188Z,44.17
2019-01-23T15:00:27.035Z,39.50
2019-01-23T15:02:56.190Z,37.80
2019-01-23T15:05:25.492Z,48.53
2019-01-23T15:07:54.597Z,42.23
2019-01-23T15:10:28.808Z,36.07
2019-01-23T15:12:57.800Z,41.90
2019-01-23T15:15:26.851Z,34.73
2019-01-23T15:17:56.084Z,41.10
2019-01-23T15:20:27.675Z,41.33
2019-01-23T15:22:56.513Z,44.20
2019-01-23T15:25:25.449Z,37.40
2019-01-23T15:27:54.772Z,41.80
2019-01-23T15:30:23.714Z,40.87
2019-01-23T15:32:52.640Z,47.40
2019-01-23T15:35:22.132Z,44.37
2019-01-23T15:37:51.301Z,38.57
2019-01-23T15:40:29.103Z,39.23
2019-01-23T15:42:57.948Z,38.20
2019-01-23T15:45:26.909Z,40.00
2019-01-23T15:47:55.765Z,45.20
2019-01-23T15:50:25.191Z,43.20
2019-01-23T15:52:54.068Z,43.63
2019-01-23T15:55:23.904Z,39.43
2019-01-23T15:57:52.924Z,43.27
2019-01-23T16:00:30.103Z,46.77
2019-01-23T16:02:59.132Z,41.53
2019-01-23T16:05:28.086Z,49.80
2019-01-23T16:07:58.702Z,40.90
2019-01-23T16:10:28.813Z,46.07
2019-01-23T16:12:57.743Z,46.87
2019-01-23T16:15:28.205Z,44.53
2019-01-23T16:17:57.691Z,45.93
2019-01-23T16:20:27.616Z,47.90
2019-01-23T16:22:56.577Z,53.70
2019-01-23T16:25:25.552Z,43.27
2019-01-23T16:27:54.358Z,45.07
2019-01-23T16:30:29.748Z,51.53
2019-01-23T16:32:59.234Z,40.57
2019-01-23T16:35:28.431Z,48.10
2019-01-23T16:37:57.727Z,54.00
2019-01-23T16:40:26.537Z,52.10
2019-01-23T16:42:55.776Z,51.80
2019-01-23T16:45:25.671Z,42.13
2019-01-23T16:47:54.719Z,46.80
2019-01-23T16:50:24.568Z,40.17
2019-01-23T16:52:54.021Z,43.03
2019-01-23T16:55:23.714Z,44.87
2019-01-23T16:57:53.156Z,46.63
2019-01-23T17:00:23.403Z,47.17
2019-01-23T17:02:53.375Z,41.80
2019-01-23T17:05:25.118Z,48.20
2019-01-23T17:07:54.849Z,47.20
2019-01-23T17:10:24.751Z,47.57
2019-01-23T17:12:54.260Z,42.70
2019-01-23T17:15:23.535Z,44.83
2019-01-23T17:17:52.868Z,47.60
2019-01-23T17:20:25.216Z,48.80
2019-01-23T17:22:54.071Z,48.03
2019-01-23T17:25:23.211Z,40.83
2019-01-23T17:27:52.725Z,46.97
2019-01-23T17:30:22.052Z,52.50
2019-01-23T17:32:50.877Z,42.63
2019-01-23T17:35:20.148Z,42.73
2019-01-23T17:37:49.624Z,44.47
2019-01-23T17:40:19.599Z,50.80
2019-01-23T17:42:48.915Z,57.90
2019-01-23T17:45:23.351Z,47.03
2019-01-23T17:47:52.750Z,60.37
2019-01-23T17:50:22.471Z,53.50
2019-01-23T17:52:51.861Z,54.27
2019-01-23T17:55:23.588Z,50.53
2019-01-23T17:57:52.731Z,52.13
2019-01-23T18:00:26.020Z,58.33
2019-01-23T18:02:55.305Z,54.27
2019-01-23T18:05:25.070Z,49.30
2019-01-23T18:07:55.465Z,47.53
2019-01-23T18:10:28.074Z,45.77
2019-01-23T18:12:57.550Z,46.60
2019-01-23T18:15:27.130Z,46.80
2019-01-23T18:17:57.058Z,49.00
2019-01-23T18:20:27.638Z,50.87
2019-01-23T18:22:56.894Z,47.47
2019-01-23T18:25:26.186Z,47.03
2019-01-23T18:27:55.506Z,50.33
2019-01-23T18:30:41.129Z,55.20
2019-01-23T18:33:12.101Z,46.77
2019-01-23T18:36:06.171Z,43.10
2019-01-23T18:38:39.766Z,53.60
2019-01-23T18:41:54.771Z,52.77
2019-01-23T18:45:02.447Z,50.20
2019-01-23T18:48:10.171Z,45.17
2019-01-23T18:51:12.569Z,42.87
2019-01-23T18:53:41.716Z,55.63
2019-01-23T18:56:10.869Z,48.77
2019-01-23T18:58:39.794Z,50.50
2019-01-23T19:01:09.415Z,47.10
2019-01-23T19:03:38.612Z,41.97
2019-01-23T19:06:08.215Z,46.03
2019-01-23T19:08:37.517Z,48.35
2019-01-23T19:11:06.493Z,51.45
2019-01-23T19:13:35.854Z,44.23
2019-01-23T19:16:06.719Z,52.80
2019-01-23T19:18:35.594Z,43.40
2019-01-23T19:21:05.331Z,55.17
2019-01-23T19:23:34.675Z,50.47
2019-01-23T19:26:04.141Z,39.10
2019-01-23T19:28:33.769Z,44.17
2019-01-23T19:31:03.040Z,56.90
2019-01-23T19:33:32.579Z,47.20
2019-01-23T19:36:01.825Z,45.83
2019-01-23T19:38:30.747Z,49.93
2019-01-23T19:40:59.754Z,40.63
2019-01-23T19:43:28.955Z,49.67
2019-01-23T19:45:58.715Z,47.87
2019-01-23T19:48:27.690Z,43.70
2019-01-23T19:50:56.875Z,40.93
2019-01-23T19:53:26.068Z,42.73
2019-01-23T19:55:55.495Z,46.53
2019-01-23T19:58:24.953Z,40.30
2019-01-23T20:00:53.889Z,39.20
2019-01-23T20:03:23.733Z,48.77
2019-01-23T20:05:52.813Z,41.07
2019-01-23T20:08:21.802Z,45.33
2019-01-23T20:10:50.640Z,48.20
2019-01-23T20:13:19.963Z,59.67
2019-01-23T20:15:48.884Z,52.00
2019-01-23T20:18:18.136Z,46.40
2019-01-23T20:20:46.939Z,51.33
2019-01-23T20:23:16.151Z,50.53
2019-01-23T20:25:45.067Z,54.80
2019-01-23T20:28:14.526Z,52.97
2019-01-23T20:30:44.871Z,53.17
2019-01-23T20:33:14.411Z,50.37
2019-01-23T20:35:43.341Z,50.20
2019-01-23T20:38:12.802Z,43.33
2019-01-23T20:40:41.962Z,52.33
2019-01-23T20:43:11.302Z,41.73
2019-01-23T20:45:40.591Z,44.90
2019-01-23T20:48:10.984Z,43.70
2019-01-23T20:50:40.428Z,54.57
2019-01-23T20:53:09.302Z,49.70
2019-01-23T20:55:39.048Z,49.90
2019-01-23T20:58:08.681Z,47.97
2019-01-23T21:00:37.684Z,47.70
2019-01-23T21:03:06.914Z,50.40
2019-01-23T21:05:36.178Z,46.47
2019-01-23T21:08:05.267Z,51.23
2019-01-23T21:10:34.181Z,43.93
2019-01-23T21:13:03.201Z,48.07
2019-01-23T21:15:33.282Z,44.23
2019-01-23T21:18:03.504Z,54.73
2019-01-23T21:20:35.461Z,48.17
2019-01-23T21:23:04.557Z,52.83
2019-01-23T21:25:34.117Z,50.20
2019-01-23T21:28:03.266Z,48.83
2019-01-23T21:30:32.198Z,53.40
2019-01-23T21:33:01.507Z,48.37
2019-01-23T21:35:31.091Z,44.03
2019-01-23T21:38:00.810Z,49.97
2019-01-23T21:40:31.935Z,51.97
2019-01-23T21:43:02.806Z,48.23
2019-01-23T21:45:37.097Z,43.63
2019-01-23T21:48:06.754Z,43.77
2019-01-23T21:50:36.022Z,46.40
2019-01-23T21:53:05.607Z,43.80
2019-01-23T21:55:34.909Z,48.67
2019-01-23T21:58:04.143Z,47.27
2019-01-23T22:00:39.403Z,49.83
2019-01-23T22:03:09.090Z,46.87
2019-01-23T22:05:38.579Z,52.77
2019-01-23T22:08:08.010Z,45.50
2019-01-23T22:10:37.867Z,51.57
2019-01-23T22:13:07.110Z,49.03
2019-01-23T22:15:36.727Z,45.37
2019-01-23T22:18:07.535Z,50.20
2019-01-23T22:20:36.797Z,47.70
2019-01-23T22:23:06.028Z,50.90
2019-01-23T22:25:34.923Z,49.67
2019-01-23T22:28:04.012Z,57.37
2019-01-23T22:30:33.559Z,56.83
2019-01-23T22:33:03.108Z,51.97
2019-01-23T22:35:32.535Z,53.33
2019-01-23T22:38:01.798Z,62.83
2019-01-23T22:40:31.098Z,58.03
2019-01-23T22:43:00.154Z,52.63
2019-01-23T22:45:29.600Z,55.20
2019-01-23T22:47:59.050Z,51.97
2019-01-23T22:50:29.340Z,55.60
2019-01-23T22:52:58.696Z,49.63
2019-01-23T22:55:27.991Z,59.57
2019-01-23T22:57:57.328Z,52.67
2019-01-23T23:00:41.955Z,49.77
2019-01-23T23:03:13.328Z,51.63
2019-01-23T23:05:42.615Z,51.40
2019-01-23T23:08:11.567Z,50.73
2019-01-23T23:10:40.859Z,49.93
2019-01-23T23:13:10.286Z,61.60
2019-01-23T23:15:39.507Z,48.27
2019-01-23T23:18:08.900Z,58.10
2019-01-23T23:20:37.785Z,52.30
2019-01-23T23:23:07.104Z,50.67
2019-01-23T23:25:36.467Z,52.03
2019-01-23T23:28:06.263Z,52.53
2019-01-23T23:30:35.505Z,52.77
2019-01-23T23:33:04.558Z,51.60
2019-01-23T23:35:34.326Z,58.03
2019-01-23T23:38:03.367Z,53.77
2019-01-23T23:40:32.607Z,57.80
2019-01-23T23:43:01.569Z,52.40
2019-01-23T23:45:30.801Z,56.17
2019-01-23T23:48:00.090Z,55.87
2019-01-23T23:50:29.563Z,53.00
2019-01-23T23:52:58.718Z,54.60
2019-01-23T23:55:28.163Z,46.80
2019-01-23T23:57:57.199Z,53.57
